Time;durP1;ratioP1;P1;durP2;ratioP2;P2;SDS_P1;SDS_P2;PMS_P1;PMS_P2;Temp;Humidity;BMP_temperature;BMP_pressure;BME280_temperature;BME280_humidity;BME280_pressure;Samples;Min_cycle;Max_cycle;Signal;HPM_P1;HPM_P2
2023/01/21 00:01:09;;;;;;;66.60;26.10;;;;;;;-0.76;100.00;102179.41;4953150;28;20043;-81
2023/01/21 00:03:34;;;;;;;70.50;28.08;;;;;;;-0.75;100.00;102192.81;4919951;29;20035;-81
2023/01/21 00:06:00;;;;;;;58.83;24.25;;;;;;;-0.71;100.00;102195.50;4963965;28;20023;-81
2023/01/21 00:08:26;;;;;;;59.67;25.08;;;;;;;-0.66;100.00;102201.69;4929463;29;20435;-81
2023/01/21 00:10:52;;;;;;;69.45;28.65;;;;;;;-0.75;100.00;102202.69;4940604;29;20035;-81
2023/01/21 00:13:17;;;;;;;63.15;24.70;;;;;;;-0.81;100.00;102205.44;4948017;28;20398;-82
2023/01/21 00:15:43;;;;;;;64.53;25.48;;;;;;;-0.89;100.00;102202.81;4922574;29;20036;-81
2023/01/21 00:18:09;;;;;;;61.35;25.75;;;;;;;-0.89;100.00;102204.63;4931984;29;20114;-81
2023/01/21 00:20:35;;;;;;;70.20;26.98;;;;;;;-0.87;100.00;102208.19;4952729;28;20070;-81
2023/01/21 00:23:01;;;;;;;65.78;25.38;;;;;;;-0.91;100.00;102203.75;4940898;29;20043;-81
2023/01/21 00:25:26;;;;;;;65.63;24.40;;;;;;;-1.03;100.00;102207.44;4923990;28;20027;-81
2023/01/21 00:27:52;;;;;;;64.57;24.33;;;;;;;-1.14;100.00;102203.03;4931009;29;20055;-81
2023/01/21 00:30:19;;;;;;;63.53;26.10;;;;;;;-1.06;100.00;102210.16;4940679;29;20070;-81
2023/01/21 00:32:44;;;;;;;71.78;25.77;;;;;;;-1.10;100.00;102211.97;4960820;28;20039;-81
2023/01/21 00:35:09;;;;;;;64.35;25.10;;;;;;;-1.15;100.00;102213.81;4966403;28;20051;-81
2023/01/21 00:37:35;;;;;;;69.30;25.83;;;;;;;-1.20;100.00;102218.34;4924554;29;20031;-81
2023/01/21 00:40:00;;;;;;;61.28;26.05;;;;;;;-1.15;100.00;102214.72;4957277;28;20040;-80
2023/01/21 00:42:27;;;;;;;62.60;23.92;;;;;;;-1.17;100.00;102221.00;4937119;29;20035;-81
2023/01/21 00:44:54;;;;;;;60.92;24.13;;;;;;;-1.14;100.00;102229.03;4934893;28;20043;-81
2023/01/21 00:47:19;;;;;;;54.85;21.10;;;;;;;-1.24;100.00;102221.97;4923399;29;20068;-81
2023/01/21 00:49:44;;;;;;;62.58;21.67;;;;;;;-1.28;100.00;102230.94;4940290;29;20413;-81
2023/01/21 00:52:10;;;;;;;59.05;22.83;;;;;;;-1.26;100.00;102226.44;4924010;29;20039;-80
2023/01/21 00:54:35;;;;;;;64.65;25.27;;;;;;;-1.26;100.00;102242.56;4934353;28;20051;-81
2023/01/21 00:57:01;;;;;;;69.00;28.50;;;;;;;-1.33;100.00;102241.72;4956998;28;20410;-82
2023/01/21 00:59:27;;;;;;;62.72;24.08;;;;;;;-1.40;100.00;102243.56;4924242;28;20035;-81
2023/01/21 01:01:53;;;;;;;69.38;27.05;;;;;;;-1.47;100.00;102244.50;4931484;29;20039;-81
2023/01/21 01:04:19;;;;;;;66.03;25.52;;;;;;;-1.37;100.00;102254.28;4932106;28;20030;-81
2023/01/21 01:06:44;;;;;;;63.17;24.85;;;;;;;-1.27;100.00;102255.09;4924498;29;20054;-82
2023/01/21 01:09:11;;;;;;;65.85;25.15;;;;;;;-1.36;100.00;102261.44;4958825;28;20055;-81
2023/01/21 01:11:37;;;;;;;61.50;23.48;;;;;;;-1.43;100.00;102266.84;4939142;29;20449;-82
2023/01/21 01:14:03;;;;;;;75.22;25.80;;;;;;;-1.36;100.00;102273.97;4955799;28;20080;-82
2023/01/21 01:16:29;;;;;;;55.22;22.52;;;;;;;-1.46;100.00;102270.44;4935506;29;20074;-82
2023/01/21 01:18:54;;;;;;;65.80;26.05;;;;;;;-1.53;100.00;102284.81;4939501;29;20330;-82
2023/01/21 01:21:21;;;;;;;66.05;25.85;;;;;;;-1.49;100.00;102289.28;4936101;29;20034;-82
2023/01/21 01:23:47;;;;;;;59.50;22.92;;;;;;;-1.50;100.00;102295.56;4949967;28;20034;-82
2023/01/21 01:26:16;;;;;;;74.13;25.38;;;;;;;-1.52;100.00;102297.38;4959402;28;20093;-81
2023/01/21 01:28:42;;;;;;;69.30;25.95;;;;;;;-1.51;100.00;102310.78;4952077;28;20484;-81
2023/01/21 01:31:13;;;;;;;69.40;27.70;;;;;;;-1.51;100.00;102312.56;4942059;28;20121;-82
2023/01/21 01:33:39;;;;;;;62.67;24.17;;;;;;;-1.38;100.00;102322.31;4931916;28;20035;-81
2023/01/21 01:36:09;;;;;;;57.58;22.27;;;;;;;-1.31;100.00;102324.09;4939021;29;20045;-81
2023/01/21 01:38:34;;;;;;;64.07;24.98;;;;;;;-1.49;100.00;102324.22;4951398;29;20074;-81
2023/01/21 01:41:00;;;;;;;76.00;26.58;;;;;;;-1.43;100.00;102329.53;4941180;28;20126;-81
2023/01/21 01:43:47;;;;;;;75.63;25.10;;;;;;;-1.39;100.00;102351.91;4939054;28;20067;-80
2023/01/21 01:46:13;;;;;;;71.18;26.58;;;;;;;-1.51;100.00;102351.06;4920527;29;20464;-81
2023/01/21 01:48:41;;;;;;;71.70;27.25;;;;;;;-1.43;100.00;102353.69;4938171;29;20036;-82
2023/01/21 01:51:08;;;;;;;63.25;24.20;;;;;;;-1.43;100.00;102361.75;4953347;28;20405;-81
2023/01/21 01:53:35;;;;;;;61.15;24.25;;;;;;;-1.45;100.00;102360.88;4961848;28;20031;-81
2023/01/21 01:56:02;;;;;;;70.55;25.70;;;;;;;-1.52;100.00;102360.00;4954804;28;20061;-81
2023/01/21 01:58:29;;;;;;;69.00;26.05;;;;;;;-1.55;100.00;102367.19;4937983;29;20027;-81
2023/01/21 02:00:56;;;;;;;70.30;28.38;;;;;;;-1.55;100.00;102370.78;4933537;29;20075;-82
2023/01/21 02:04:03;;;;;;;68.93;26.02;;;;;;;-1.37;100.00;102372.47;4959848;28;20035;-82
2023/01/21 02:06:12;;;;;;;70.82;25.85;;;;;;;-1.43;100.00;102374.31;4938972;29;20458;-81
2023/01/21 02:08:38;;;;;;;62.10;24.15;;;;;;;-1.55;100.00;102370.78;4925704;28;20042;-81
2023/01/21 02:11:14;;;;;;;69.90;27.60;;;;;;;-1.48;100.00;102366.25;4942042;28;20023;-82
2023/01/21 02:13:43;;;;;;;70.95;25.40;;;;;;;-1.61;100.00;102369.91;4920724;28;20500;-81
2023/01/21 02:16:28;;;;;;;71.25;27.70;;;;;;;-1.50;100.00;102376.13;4951980;28;20035;-81
2023/01/21 02:19:22;;;;;;;67.55;26.05;;;;;;;-1.65;100.00;102381.56;4944710;29;20118;-81
2023/01/21 02:22:25;;;;;;;74.75;25.25;;;;;;;-1.67;100.00;102378.88;4938683;29;20475;-81
2023/01/21 02:25:06;;;;;;;65.25;25.80;;;;;;;-1.63;100.00;102387.81;4933388;28;20042;-81
2023/01/21 02:27:46;;;;;;;76.97;26.42;;;;;;;-1.46;100.00;102395.81;4941700;29;20121;-82
2023/01/21 02:30:38;;;;;;;76.30;27.67;;;;;;;-1.55;100.00;102384.19;4954131;28;20105;-81
2023/01/21 02:33:21;;;;;;;68.07;26.88;;;;;;;-1.54;100.00;102390.44;4971672;28;20113;-81
2023/01/21 02:36:09;;;;;;;73.25;25.77;;;;;;;-1.50;100.00;102389.56;4970533;28;20027;-81
2023/01/21 02:39:02;;;;;;;69.63;26.40;;;;;;;-1.55;100.00;102402.13;4938280;29;20144;-81
2023/01/21 02:41:44;;;;;;;79.55;27.58;;;;;;;-1.59;100.00;102403.91;4938174;29;20418;-81
2023/01/21 02:44:26;;;;;;;68.30;27.75;;;;;;;-1.56;100.00;102389.56;4933088;29;20474;-81
2023/01/21 02:47:01;;;;;;;79.18;29.38;;;;;;;-1.54;100.00;102406.56;4960409;28;20162;-81
2023/01/21 02:49:36;;;;;;;72.45;27.75;;;;;;;-1.56;100.00;102400.31;4934865;29;20024;-82
2023/01/21 02:52:01;;;;;;;71.53;26.63;;;;;;;-1.60;100.00;102415.56;4953138;29;20116;-81
2023/01/21 02:54:39;;;;;;;75.28;29.10;;;;;;;-1.49;100.00;102424.47;4909614;28;20039;-81
2023/01/21 02:57:13;;;;;;;77.72;28.08;;;;;;;-1.63;100.00;102415.56;4939415;28;20086;-81
2023/01/21 02:59:42;;;;;;;76.85;27.63;;;;;;;-1.61;100.00;102421.81;4972195;28;20037;-81
2023/01/21 03:02:35;;;;;;;68.35;27.08;;;;;;;-1.67;100.00;102428.09;4948195;29;20027;-81
2023/01/21 03:05:26;;;;;;;83.43;30.25;;;;;;;-1.67;100.00;102432.59;4941603;29;20084;-81
2023/01/21 03:07:55;;;;;;;76.57;25.92;;;;;;;-1.68;100.00;102437.03;4913986;29;20523;-81
2023/01/21 03:10:33;;;;;;;72.93;26.70;;;;;;;-1.65;100.00;102430.78;4918521;28;20125;-80
2023/01/21 03:16:55;;;;;;;71.57;28.35;;;;;;;-1.74;100.00;102433.47;4954898;29;20090;-81
2023/01/21 03:18:57;;;;;;;85.45;28.50;;;;;;;-1.72;100.00;102437.06;4957864;28;20027;-81
2023/01/21 03:21:27;;;;;;;69.88;23.42;;;;;;;-1.51;100.00;102446.84;4954130;29;20031;-81
2023/01/21 03:23:56;;;;;;;70.18;24.92;;;;;;;-1.62;100.00;102449.56;4937117;28;20062;-81
2023/01/21 03:26:46;;;;;;;77.70;28.25;;;;;;;-1.59;100.00;102449.56;4962971;28;20031;-81
2023/01/21 03:29:25;;;;;;;60.83;22.33;;;;;;;-1.69;100.00;102458.53;4964936;28;20045;-81
2023/01/21 03:31:56;;;;;;;58.53;24.13;;;;;;;-1.71;100.00;102447.78;4935932;29;20042;-81
2023/01/21 03:34:24;;;;;;;85.57;28.52;;;;;;;-1.72;100.00;102451.41;4962609;28;20043;-82
2023/01/21 03:36:58;;;;;;;78.35;26.55;;;;;;;-1.75;100.00;102455.88;4941701;29;20372;-82
2023/01/21 03:39:28;;;;;;;74.53;27.15;;;;;;;-1.74;100.00;102454.97;4947666;28;20035;-81
2023/01/21 03:41:54;;;;;;;66.68;26.80;;;;;;;-1.68;100.00;102458.53;4922608;28;20046;-81
2023/01/21 03:44:20;;;;;;;69.80;24.00;;;;;;;-1.63;100.00;102463.00;4937728;28;20038;-82
2023/01/21 03:47:18;;;;;;;74.35;25.15;;;;;;;-1.73;100.00;102465.69;4940338;29;20035;-82
2023/01/21 03:49:54;;;;;;;62.83;24.05;;;;;;;-1.63;100.00;102468.38;4936972;29;20505;-82
2023/01/21 03:52:23;;;;;;;78.18;28.92;;;;;;;-1.64;100.00;102477.31;4940268;28;20035;-80
2023/01/21 03:54:48;;;;;;;72.13;24.63;;;;;;;-1.73;100.00;102463.00;4961570;28;20118;-82
2023/01/21 03:57:14;;;;;;;75.68;26.35;;;;;;;-1.77;100.00;102469.31;4937198;29;20067;-82
2023/01/21 03:59:40;;;;;;;69.32;25.52;;;;;;;-1.85;100.00;102480.03;4935982;29;20126;-81
2023/01/21 04:02:05;;;;;;;75.65;29.25;;;;;;;-1.89;100.00;102472.88;4962761;28;20090;-82
2023/01/21 04:04:31;;;;;;;73.13;27.20;;;;;;;-1.94;100.00;102473.78;4928005;28;20490;-82
2023/01/21 04:06:56;;;;;;;75.28;28.42;;;;;;;-1.91;100.00;102481.84;4940110;29;20035;-82
2023/01/21 04:09:23;;;;;;;73.57;23.90;;;;;;;-1.86;100.00;102482.72;4925268;29;20046;-82
2023/01/21 04:11:48;;;;;;;78.78;26.13;;;;;;;-1.79;100.00;102476.44;4940294;29;20051;-81
2023/01/21 04:14:14;;;;;;;82.95;28.48;;;;;;;-1.93;100.00;102481.84;4960891;28;20046;-82
2023/01/21 04:16:39;;;;;;;82.13;29.23;;;;;;;-1.92;100.00;102485.41;4925701;29;20042;-81
2023/01/21 04:19:04;;;;;;;71.03;23.95;;;;;;;-1.86;100.00;102490.78;4946856;28;20043;-81
2023/01/21 04:21:30;;;;;;;87.78;28.42;;;;;;;-1.86;100.00;102497.03;4920503;29;20035;-82
2023/01/21 04:23:55;;;;;;;81.10;28.85;;;;;;;-1.87;100.00;102500.63;4926412;28;20549;-81
2023/01/21 04:26:21;;;;;;;63.50;22.65;;;;;;;-1.79;100.00;102497.03;4935804;29;20065;-82
2023/01/21 04:28:46;;;;;;;82.03;29.05;;;;;;;-1.89;100.00;102501.50;4957871;29;20023;-81
2023/01/21 04:31:12;;;;;;;79.63;27.90;;;;;;;-1.94;100.00;102506.88;4923874;29;20054;-81
2023/01/21 04:33:37;;;;;;;78.32;28.52;;;;;;;-1.91;100.00;102506.00;4940228;28;20413;-81
2023/01/21 04:36:03;;;;;;;87.35;28.92;;;;;;;-1.88;100.00;102504.19;4928756;29;20162;-82
2023/01/21 04:38:28;;;;;;;86.10;28.23;;;;;;;-1.92;100.00;102509.56;4926394;29;20045;-82
2023/01/21 04:40:54;;;;;;;76.03;27.30;;;;;;;-1.92;100.00;102505.13;4943420;29;20509;-82
2023/01/21 04:43:19;;;;;;;81.22;29.42;;;;;;;-1.87;100.00;102514.06;4944986;29;20070;-82
2023/01/21 04:45:45;;;;;;;77.18;27.38;;;;;;;-1.99;100.00;102516.72;4936837;28;20081;-81
2023/01/21 04:48:10;;;;;;;76.93;29.17;;;;;;;-1.97;100.00;102512.25;4953280;28;20043;-81
2023/01/21 04:50:36;;;;;;;95.63;30.77;;;;;;;-1.99;100.00;102518.53;4953239;28;20094;-82
2023/01/21 04:53:01;;;;;;;89.78;31.77;;;;;;;-2.01;100.00;102531.06;4926075;29;20062;-82
2023/01/21 04:55:27;;;;;;;98.10;31.23;;;;;;;-2.13;100.00;102523.88;4925739;29;20046;-82
2023/01/21 04:57:52;;;;;;;77.93;27.13;;;;;;;-2.10;100.00;102529.25;4953943;28;20032;-81
2023/01/21 05:00:18;;;;;;;87.22;31.05;;;;;;;-2.17;100.00;102514.94;4939423;29;20087;-82
2023/01/21 05:02:43;;;;;;;85.65;29.10;;;;;;;-2.12;100.00;102529.25;4956721;28;20035;-82
2023/01/21 05:05:09;;;;;;;92.35;30.38;;;;;;;-2.23;100.00;102523.88;4941953;28;20043;-81
2023/01/21 05:07:34;;;;;;;93.20;28.52;;;;;;;-2.19;100.00;102523.91;4936514;29;20043;-82
2023/01/21 05:10:00;;;;;;;87.57;31.73;;;;;;;-2.23;100.00;102522.97;4939829;29;20046;-81
2023/01/21 05:12:26;;;;;;;91.70;29.88;;;;;;;-2.25;100.00;102530.13;4926474;29;20031;-82
2023/01/21 05:14:53;;;;;;;85.65;29.30;;;;;;;-2.31;100.00;102525.66;4943918;29;20051;-81
2023/01/21 05:17:18;;;;;;;105.07;30.05;;;;;;;-2.27;100.00;102524.75;4950440;29;20063;-82
2023/01/21 05:19:44;;;;;;;84.85;28.73;;;;;;;-2.33;100.00;102521.19;4940178;29;20478;-81
2023/01/21 05:22:09;;;;;;;83.75;26.48;;;;;;;-2.30;100.00;102527.44;4939978;29;20474;-82
2023/01/21 05:24:35;;;;;;;72.97;23.83;;;;;;;-2.12;100.00;102531.94;4936902;29;20040;-81
2023/01/21 05:27:00;;;;;;;73.15;24.75;;;;;;;-2.13;100.00;102538.22;4966421;28;20051;-82
2023/01/21 05:29:26;;;;;;;85.60;29.85;;;;;;;-2.12;100.00;102529.25;4937306;28;20172;-81
2023/01/21 05:31:51;;;;;;;98.70;30.38;;;;;;;-2.06;100.00;102550.72;4956952;28;20114;-81
2023/01/21 05:34:16;;;;;;;78.07;26.55;;;;;;;-1.91;100.00;102544.47;4937975;28;20447;-81
2023/01/21 05:36:42;;;;;;;85.38;28.90;;;;;;;-2.13;100.00;102557.00;4927713;29;20114;-80
2023/01/21 05:39:07;;;;;;;81.35;29.25;;;;;;;-2.17;100.00;102551.63;4956009;28;20389;-82
2023/01/21 05:41:33;;;;;;;102.43;25.58;;;;;;;-2.16;100.00;102564.16;4957110;29;20174;-81
2023/01/21 05:43:58;;;;;;;95.53;30.90;;;;;;;-2.21;100.00;102558.78;4922479;29;20126;-80
2023/01/21 05:46:24;;;;;;;88.15;29.38;;;;;;;-2.17;100.00;102568.59;4930414;29;20032;-82
2023/01/21 05:48:49;;;;;;;88.25;28.88;;;;;;;-2.01;100.00;102565.94;4944645;28;20046;-81
2023/01/21 05:51:15;;;;;;;83.70;30.70;;;;;;;-2.07;100.00;102573.06;4921175;28;20498;-82
2023/01/21 05:53:40;;;;;;;90.55;32.05;;;;;;;-2.21;100.00;102569.50;4940580;29;20031;-82
2023/01/21 05:56:06;;;;;;;96.03;30.33;;;;;;;-2.25;100.00;102575.72;4940071;29;20043;-81
2023/01/21 05:58:31;;;;;;;79.85;26.25;;;;;;;-2.29;100.00;102574.84;4932954;28;20023;-82
2023/01/21 06:00:57;;;;;;;75.28;27.27;;;;;;;-2.32;100.00;102565.91;4932495;28;20446;-82
2023/01/21 06:03:23;;;;;;;76.75;26.58;;;;;;;-2.04;100.00;102585.59;4948580;29;20043;-81
2023/01/21 06:05:49;;;;;;;88.70;28.10;;;;;;;-2.11;100.00;102584.72;4959158;28;20050;-80
2023/01/21 06:08:16;;;;;;;86.82;28.27;;;;;;;-2.15;100.00;102584.69;4956869;28;20035;-81
2023/01/21 06:10:41;;;;;;;86.88;29.33;;;;;;;-2.07;100.00;102597.22;4938618;29;20074;-81
2023/01/21 06:13:10;;;;;;;93.65;30.20;;;;;;;-2.12;100.00;102590.06;4926831;28;20438;-81
2023/01/21 06:15:36;;;;;;;88.90;32.15;;;;;;;-2.14;100.00;102590.06;4939364;29;20403;-81
2023/01/21 06:18:01;;;;;;;93.00;30.83;;;;;;;-2.18;100.00;102588.28;4957792;28;20035;-81
2023/01/21 06:20:30;;;;;;;89.38;28.50;;;;;;;-2.19;100.00;102596.34;4936405;28;20062;-82
2023/01/21 06:23:01;;;;;;;88.47;28.00;;;;;;;-2.05;100.00;102605.28;4959236;28;20061;-81
2023/01/21 06:25:26;;;;;;;78.03;26.88;;;;;;;-2.22;100.00;102611.50;4938671;29;20039;-82
2023/01/21 06:27:56;;;;;;;95.82;31.30;;;;;;;-2.13;100.00;102617.78;4941957;28;20489;-81
2023/01/21 06:30:22;;;;;;;90.78;28.40;;;;;;;-2.25;100.00;102624.94;4936470;28;20111;-81
2023/01/21 06:32:48;;;;;;;96.70;29.73;;;;;;;-2.22;100.00;102621.34;4976331;28;20494;-82
2023/01/21 06:35:13;;;;;;;95.10;28.92;;;;;;;-2.27;100.00;102634.75;4970562;28;20038;-81
2023/01/21 06:37:39;;;;;;;93.55;29.55;;;;;;;-2.32;100.00;102644.56;4941817;29;20043;-80
2023/01/21 06:40:06;;;;;;;101.47;32.13;;;;;;;-2.22;100.00;102634.75;4923586;28;20039;-81
2023/01/21 06:42:31;;;;;;;101.90;32.20;;;;;;;-2.34;100.00;102629.38;4952489;28;20039;-81
2023/01/21 06:44:57;;;;;;;96.05;29.50;;;;;;;-2.29;100.00;102643.69;4933323;28;20043;-80
2023/01/21 06:47:23;;;;;;;91.25;29.80;;;;;;;-2.34;100.00;102643.69;4927826;28;20594;-81
2023/01/21 06:49:48;;;;;;;91.35;30.27;;;;;;;-2.36;100.00;102639.19;4943634;28;20114;-80
2023/01/21 06:52:13;;;;;;;92.55;29.80;;;;;;;-2.34;100.00;102642.78;4921474;29;20077;-81
2023/01/21 06:54:39;;;;;;;95.10;31.88;;;;;;;-2.50;100.00;102650.75;4936673;29;20035;-81
2023/01/21 06:57:04;;;;;;;89.57;31.70;;;;;;;-2.58;100.00;102642.66;4945542;28;20054;-81
2023/01/21 06:59:30;;;;;;;93.72;31.45;;;;;;;-2.47;100.00;102657.94;4934284;28;20028;-81
2023/01/21 07:01:57;;;;;;;102.13;31.75;;;;;;;-2.51;100.00;102651.66;4959770;28;20046;-81
2023/01/21 07:04:24;;;;;;;98.05;30.25;;;;;;;-2.56;100.00;102658.78;4950318;29;20071;-81
2023/01/21 07:06:49;;;;;;;100.07;32.33;;;;;;;-2.57;100.00;102659.69;4934688;29;20059;-80
2023/01/21 07:09:15;;;;;;;88.70;31.13;;;;;;;-2.55;100.00;102662.38;4938820;28;20036;-80
2023/01/21 07:11:40;;;;;;;98.65;30.48;;;;;;;-2.60;100.00;102665.03;4931359;28;20498;-81
2023/01/21 07:14:06;;;;;;;97.07;30.13;;;;;;;-2.63;100.00;102676.63;4907053;29;20066;-80
2023/01/21 07:16:31;;;;;;;98.93;32.10;;;;;;;-2.62;100.00;102677.53;4965572;28;20401;-79
2023/01/21 07:18:56;;;;;;;99.65;31.77;;;;;;;-2.46;100.00;102673.13;4954550;28;20035;-79
2023/01/21 07:21:23;;;;;;;83.47;28.88;;;;;;;-2.55;100.00;102673.97;4974192;28;20038;-79
2023/01/21 07:23:51;;;;;;;93.65;29.58;;;;;;;-2.48;100.00;102686.50;4928315;28;20051;-79
2023/01/21 07:26:17;;;;;;;99.03;30.73;;;;;;;-2.58;100.00;102676.63;4965645;28;20023;-81
2023/01/21 07:28:42;;;;;;;101.30;32.25;;;;;;;-2.55;100.00;102692.75;4938438;29;20058;-81
2023/01/21 07:31:08;;;;;;;88.78;30.20;;;;;;;-2.59;100.00;102689.16;4926974;29;20083;-81
2023/01/21 07:33:33;;;;;;;110.35;31.17;;;;;;;-2.59;100.00;102704.38;4927095;29;20399;-79
2023/01/21 07:35:59;;;;;;;100.03;31.35;;;;;;;-2.61;100.00;102706.13;4952635;29;20028;-80
2023/01/21 07:38:24;;;;;;;111.05;32.47;;;;;;;-2.53;100.00;102708.84;4939418;29;20032;-80
2023/01/21 07:40:50;;;;;;;116.03;33.88;;;;;;;-2.51;100.00;102707.97;4947247;28;20438;-80
2023/01/21 07:43:16;;;;;;;101.45;30.23;;;;;;;-2.64;100.00;102698.06;4968078;28;20102;-81
2023/01/21 07:45:42;;;;;;;99.47;30.15;;;;;;;-2.58;100.00;102717.75;4955970;28;20047;-81
2023/01/21 07:48:08;;;;;;;93.47;29.40;;;;;;;-2.47;100.00;102719.63;4955488;28;20044;-81
2023/01/21 07:50:34;;;;;;;86.18;29.95;;;;;;;-2.48;100.00;102728.53;4945315;28;20114;-82
2023/01/21 07:52:59;;;;;;;94.43;31.98;;;;;;;-2.53;100.00;102719.56;4921636;29;20538;-81
2023/01/21 07:55:26;;;;;;;99.60;31.70;;;;;;;-2.48;100.00;102720.50;4951856;28;20036;-80
2023/01/21 07:57:51;;;;;;;117.63;31.65;;;;;;;-2.44;100.00;102717.84;4934336;28;21211;-77
2023/01/21 08:00:17;;;;;;;102.35;30.35;;;;;;;-2.43;100.00;102725.00;4982271;28;20042;-82
2023/01/21 08:02:43;;;;;;;101.40;31.65;;;;;;;-2.47;100.00;102733.91;4916944;28;20085;-80
2023/01/21 08:05:09;;;;;;;106.80;31.58;;;;;;;-2.37;100.00;102737.53;4936646;28;20075;-80
2023/01/21 08:07:35;;;;;;;86.30;29.17;;;;;;;-2.27;100.00;102750.09;4966155;28;20077;-81
2023/01/21 08:10:01;;;;;;;104.00;31.25;;;;;;;-2.22;100.00;102758.19;4955168;28;20387;-76
2023/01/21 08:12:27;;;;;;;95.22;31.88;;;;;;;-2.28;100.00;102761.75;4932991;28;20514;-78
2023/01/21 08:14:52;;;;;;;89.78;29.25;;;;;;;-2.14;100.00;102766.28;4969161;28;20068;-79
2023/01/21 08:17:18;;;;;;;107.65;32.78;;;;;;;-2.16;100.00;102774.31;4954791;28;20082;-81
2023/01/21 08:19:43;;;;;;;105.72;34.60;;;;;;;-1.99;100.00;102777.06;4962789;28;20057;-76
2023/01/21 08:22:08;;;;;;;94.18;28.80;;;;;;;-1.98;100.00;102769.91;4929165;29;20047;-76
2023/01/21 08:24:34;;;;;;;108.18;31.92;;;;;;;-1.89;100.00;102783.38;4935874;28;20035;-76
2023/01/21 08:27:00;;;;;;;73.38;26.25;;;;;;;-1.72;100.00;102787.03;4950967;28;20031;-77
2023/01/21 08:29:26;;;;;;;95.65;28.67;;;;;;;-1.78;100.00;102797.72;4962086;28;20047;-76
2023/01/21 08:31:51;;;;;;;111.47;31.27;;;;;;;-1.81;100.00;102795.03;4964575;28;20059;-78
2023/01/21 08:34:18;;;;;;;90.80;29.27;;;;;;;-1.61;100.00;102799.56;4932957;28;20047;-76
2023/01/21 08:36:43;;;;;;;108.88;30.17;;;;;;;-1.70;100.00;102809.38;4959377;28;20039;-77
2023/01/21 08:39:11;;;;;;;94.22;31.45;;;;;;;-1.79;100.00;102806.66;4921301;28;20506;-76
2023/01/21 08:41:39;;;;;;;104.00;29.58;;;;;;;-1.85;100.00;102812.03;4965316;28;20071;-76
2023/01/21 08:44:05;;;;;;;117.25;32.88;;;;;;;-1.76;100.00;102813.84;4948379;29;20082;-77
2023/01/21 08:46:31;;;;;;;114.25;33.03;;;;;;;-1.62;100.00;102828.22;4939111;28;20043;-77
2023/01/21 08:48:56;;;;;;;108.07;32.35;;;;;;;-1.61;100.00;102829.13;4944426;29;20054;-77
2023/01/21 08:51:22;;;;;;;110.68;30.67;;;;;;;-1.73;100.00;102836.22;4972953;28;20041;-76
2023/01/21 08:53:48;;;;;;;105.30;31.90;;;;;;;-1.62;100.00;102843.41;4941010;28;20070;-77
2023/01/21 08:56:14;;;;;;;104.38;31.73;;;;;;;-1.48;100.00;102856.03;4933856;28;20030;-76
2023/01/21 08:58:40;;;;;;;102.38;28.75;;;;;;;-1.49;100.00;102851.56;4932466;29;20050;-77
2023/01/21 09:01:07;;;;;;;107.53;32.08;;;;;;;-1.61;100.00;102854.16;4941272;28;20485;-77
2023/01/21 09:03:33;;;;;;;103.43;31.83;;;;;;;-1.55;100.00;102843.47;4959385;28;20511;-76
2023/01/21 09:06:03;;;;;;;75.55;24.75;;;;;;;-1.38;100.00;102845.31;4946402;28;20030;-77
2023/01/21 09:08:29;;;;;;;88.32;24.95;;;;;;;-1.46;100.00;102850.63;4971318;28;20047;-77
2023/01/21 09:11:02;;;;;;;103.93;31.33;;;;;;;-1.37;100.00;102857.84;4938591;29;20067;-77
2023/01/21 09:13:36;;;;;;;98.25;27.92;;;;;;;-1.41;100.00;102856.97;4941559;28;20224;-77
2023/01/21 09:16:02;;;;;;;108.40;31.05;;;;;;;-1.43;100.00;102856.03;4963297;28;20036;-77
2023/01/21 09:18:27;;;;;;;107.28;31.58;;;;;;;-1.37;100.00;102857.84;4930608;29;20031;-77
2023/01/21 09:20:53;;;;;;;117.28;31.88;;;;;;;-1.26;100.00;102861.47;4934573;29;20063;-76
2023/01/21 09:23:24;;;;;;;102.70;28.55;;;;;;;-1.25;100.00;102865.03;4945343;28;20054;-77
2023/01/21 09:25:52;;;;;;;111.60;30.88;;;;;;;-1.21;100.00;102870.44;4946161;28;20031;-76
2023/01/21 09:28:18;;;;;;;107.15;30.60;;;;;;;-1.14;100.00;102871.34;4942947;28;20042;-76
2023/01/21 09:30:45;;;;;;;107.63;29.40;;;;;;;-1.21;100.00;102873.13;4961166;28;20106;-78
2023/01/21 09:33:11;;;;;;;120.03;32.17;;;;;;;-1.14;100.00;102865.97;4952008;28;20394;-76
2023/01/21 09:35:37;;;;;;;127.68;32.13;;;;;;;-1.11;100.00;102871.34;4932870;28;20109;-76
2023/01/21 09:38:02;;;;;;;123.40;33.85;;;;;;;-0.94;100.00;102871.38;4938527;28;20482;-77
2023/01/21 09:40:28;;;;;;;115.90;31.50;;;;;;;-0.93;100.00;102871.38;4941466;29;20106;-76
2023/01/21 09:42:53;;;;;;;87.63;25.17;;;;;;;-0.72;100.00;102877.69;4972803;28;20066;-76
2023/01/21 09:45:19;;;;;;;137.40;33.55;;;;;;;-0.78;100.00;102881.25;4925595;29;20042;-76
2023/01/21 09:47:48;;;;;;;111.68;29.80;;;;;;;-0.72;100.00;102877.69;4952068;29;20494;-76
2023/01/21 09:50:22;;;;;;;114.32;32.70;;;;;;;-0.78;100.00;102889.31;4947974;29;20059;-75
2023/01/21 09:52:49;;;;;;;106.75;30.58;;;;;;;-0.78;100.00;102891.13;4934867;29;20046;-76
2023/01/21 09:55:24;;;;;;;106.65;31.83;;;;;;;-0.72;100.00;102893.84;4941137;29;20058;-75
2023/01/21 09:58:10;;;;;;;123.85;32.78;;;;;;;-0.66;100.00;102901.00;4940467;29;20087;-75
2023/01/21 10:00:45;;;;;;;100.82;28.67;;;;;;;-0.61;100.00;102907.28;4957322;29;20039;-75
2023/01/21 10:03:29;;;;;;;86.13;25.33;;;;;;;-0.50;100.00;102913.56;4955933;29;20190;-76
2023/01/21 10:06:11;;;;;;;112.53;32.20;;;;;;;-0.37;100.00;102901.88;4955406;28;20047;-76
2023/01/21 10:08:51;;;;;;;103.00;30.20;;;;;;;-0.31;100.00;102910.84;4921787;29;20027;-79
2023/01/21 10:11:46;;;;;;;109.75;29.23;;;;;;;-0.19;100.00;102910.88;4959081;29;20023;-75
2023/01/21 10:14:29;;;;;;;105.45;30.48;;;;;;;-0.23;100.00;102917.13;4955531;28;20050;-75
2023/01/21 10:17:20;;;;;;;80.97;26.90;;;;;;;-0.16;100.00;102902.78;4954068;28;20039;-76
2023/01/21 10:20:09;;;;;;;101.53;29.90;;;;;;;0.04;100.00;102920.72;4951175;28;20091;-75
2023/01/21 10:22:38;;;;;;;100.50;28.65;;;;;;;-0.14;100.00;102914.44;4935847;28;20486;-76
2023/01/21 10:25:30;;;;;;;91.97;30.88;;;;;;;-0.07;100.00;102915.31;4946060;28;20603;-75
2023/01/21 10:28:05;;;;;;;95.68;30.65;;;;;;;-0.16;100.00;102915.31;4938638;29;20028;-75
2023/01/21 10:30:37;;;;;;;94.57;30.00;;;;;;;-0.11;100.00;102905.47;4937596;28;20110;-75
2023/01/21 10:33:05;;;;;;;87.50;28.35;;;;;;;-0.03;100.00;102909.94;4957172;28;20049;-75
2023/01/21 10:35:43;;;;;;;94.75;29.67;;;;;;;0.02;100.00;102898.25;4977030;28;20027;-75
2023/01/21 10:38:37;;;;;;;88.97;28.17;;;;;;;0.16;100.00;102893.72;4958500;29;20046;-76
2023/01/21 10:41:10;;;;;;;91.65;29.02;;;;;;;0.12;100.00;102900.03;4960169;29;20031;-77
2023/01/21 10:43:47;;;;;;;82.63;28.33;;;;;;;0.06;100.00;102892.84;4958635;29;20040;-76
2023/01/21 10:46:39;;;;;;;92.40;29.75;;;;;;;0.36;100.00;102899.06;4955469;28;20042;-76
2023/01/21 10:49:35;;;;;;;91.85;28.05;;;;;;;0.48;100.00;102896.34;4953061;28;20043;-77
2023/01/21 10:52:20;;;;;;;93.40;28.00;;;;;;;0.75;100.00;102882.72;4956023;28;20091;-77
2023/01/21 10:55:01;;;;;;;91.95;27.40;;;;;;;1.02;100.00;102882.56;4965637;28;20054;-78
2023/01/21 10:57:39;;;;;;;84.88;30.48;;;;;;;1.35;100.00;102894.03;4933103;29;20098;-79
2023/01/21 11:00:17;;;;;;;91.68;33.13;;;;;;;1.34;100.00;102889.53;4967000;28;20500;-77
2023/01/21 11:02:49;;;;;;;85.88;29.42;;;;;;;1.27;100.00;102894.09;4945411;29;20500;-77
2023/01/21 11:05:15;;;;;;;75.28;26.98;;;;;;;1.22;100.00;102906.72;4955288;28;20035;-79
2023/01/21 11:07:42;;;;;;;76.47;26.00;;;;;;;1.36;100.00;102897.63;4935890;29;20486;-77
2023/01/21 11:10:08;;;;;;;71.45;26.35;;;;;;;1.18;100.00;102893.25;4954126;29;20027;-78
2023/01/21 11:12:34;;;;;;;76.18;25.95;;;;;;;1.08;100.00;102897.81;4955358;28;20134;-79